HOURLY OBSERVATIONS


Time
(EST)
Temperature
°F
Dew Point
°F
Humidity
%
Wind
mph
Pressure
mb
Precip.
Hour
in
Precip.
Day
in
6 Hr
Max Temp
°F
6 Hr
Min Temp
°F
23 11:00 69.6 49.6 49 E 3 G 10 1011.2 0.00
23 10:00 68.3 52.0 56 ESE 2 G 8 1011.8 0.00
23 09:00 65.7 53.2 64 SE 1 G 7 1012.7 0.00
23 08:00 59.0 52.8 80 S 2 G 4 1013.6 0.00
23 07:00 54.3 50.5 87 Calm 1013.1 0.00 54.6 50.5
23 06:00 50.8 48.6 92 Calm 1013.7 0.00
23 05:00 50.7 48.2 91 Calm 1013.6 0.00
23 04:00 51.3 48.2 89 Calm 1013.7 0.00
23 03:00 51.8 48.1 87 Calm 1014.3 0.00
23 02:00 53.3 48.6 84 Calm 1014.9 0.00
23 01:00 54.6 49.2 82 SW 0 G 2 1015.5 0.00 63.8 54.6
23 00:00 55.8 50.1 81 SW 2 G 7 1015.7 0.00
22 23:00 55.7 50.6 83 SSW 1 G 4 1016.0 0.00
22 22:00 55.7 50.0 81 SSW 0 G 5 1016.1 0.00
22 21:00 57.5 50.4 77 SW 0 G 1 1016.7 0.00
22 20:00 61.6 50.9 68 Calm 1015.7 0.00
22 19:00 63.8 50.5 62 WSW 0 G 3 1015.8 0.00 64.6 59.8
22 18:00 64.6 50.9 61 WSW 2 G 9 1015.7 0.00
22 17:00 63.8 50.5 62 SW 0 G 5 1016.2 0.00
22 16:00 63.7 50.0 61 WNW 1 G 7 1016.5 0.00
22 15:00 62.2 49.5 63 SW 3 G 12 1016.6 0.00
22 14:00 61.3 49.0 64 W 2 G 11 1016.8 0.00
22 13:00 60.0 47.4 63 W 4 G 15 1017.4 0.00 60.1 52.5
22 12:00 59.4 46.8 63 SW 4 G 11 1017.3 0.00
22 11:00 58.1 46.0 64 NNW 2 G 10 1017.6 0.00
22 10:00 56.1 45.7 68 W 3 G 8 1017.5 0.00
22 09:00 54.3 44.4 69 WSW 3 G 11 1017.3 0.00
22 08:00 52.6 44.2 73 W 3 G 10 1017.2 0.00
22 07:00 54.4 48.7 81 W 4 G 10 1016.3 0.00 63.6 54.4
22 06:00 55.9 50.8 83 WSW 2 G 7 1015.6 0.00
22 05:00 57.8 53.6 86 SW 1 G 6 1015.1 0.00
22 04:00 59.7 55.5 86 W 1 G 6 1014.7 0.00
22 03:00 60.8 57.2 88 SW 0 G 4 1014.5 0.00
22 02:00 61.3 58.3 90 W 0 G 2 1014.1 0.00
22 01:00 63.6 59.7 87 WNW 1 G 5 1014.0 0.00 68.4 63.5
22 00:00 65.0 62.0 90 SW 1 G 11 1013.8 0.52
21 23:00 66.5 63.8 91 SW 3 G 11 1013.6 0.52
21 22:00 67.2 64.8 92 S 3 G 10 1014.0 0.52
21 21:00 67.3 65.2 93 SSW 0 G 5 1014.2 0.52
21 20:00 67.7 65.3 92 S 4 G 8 1013.6 0.52
21 19:00 68.4 65.7 91 S 4 G 12 1013.6 0.52 69.0 66.7
21 18:00 68.8 66.1 91 SW 3 G 13 1013.9 0.52
21 17:00 68.5 66.1 92 SW 3 G 11 1013.9 0.52
21 16:00 68.9 66.2 91 SSW 3 G 11 1014.1 0.52
21 15:00 67.9 66.4 95 S 4 G 10 1014.5 0.04 0.52
21 14:00 67.0 65.8 96 SSW 3 G 11 1015.1 0.09 0.48
21 13:00 66.7 65.5 96 SW 3 G 6 1015.5 0.15 0.39 68.6 63.6
21 12:00 66.5 65.0 95 WSW 2 G 7 1016.0 0.13 0.24
21 11:00 67.9 66.4 95 SW 1 G 6 1016.1 0.07 0.11
21 10:00 67.6 65.5 93 S 4 G 7 1016.5 0.04 0.04
21 09:00 68.5 64.5 87 S 4 G 10 1016.6 0.00
21 08:00 66.2 62.9 89 S 4 G 10 1016.8 0.00
21 07:00 63.6 60.6 90 S 2 G 7 1016.9 0.00 63.6 60.6
21 06:00 61.2 58.6 91 SSW 3 G 7 1016.9 0.00
21 05:00 60.7 57.8 90 SSE 2 G 8 1016.6 0.00
21 04:00 60.8 57.5 89 SE 3 G 6 1016.2 0.00
21 03:00 61.0 57.4 88 SSW 1 G 4 1016.6 0.00
21 02:00 61.8 57.6 86 SSE 4 G 9 1016.7 0.00
21 01:00 62.2 57.6 85 SE 3 G 8 1017.5 0.00 69.4 62.2
21 00:00 62.9 58.0 84 SSE 2 G 8 1018.6 0.00
20 23:00 63.6 58.7 84 SSE 2 G 11 1018.6 0.00
20 22:00 64.8 59.2 82 SE 3 G 7 1018.9 0.00
20 21:00 66.2 60.2 81 S 4 G 9 1019.1 0.00
20 20:00 67.8 61.4 80 SE 1 G 6 1019.0 0.00
20 19:00 69.4 62.6 79 ESE 2 G 8 1019.0 0.00 70.3 65.4
20 18:00 69.8 63.0 79 E 3 G 7 1019.4 0.00
20 17:00 70.2 63.0 78 E 2 G 6 1020.8 0.00
20 16:00 70.3 62.8 77 E 4 G 8 1020.1 0.00
20 15:00 68.5 61.7 79 E 3 G 8 1021.0 0.00
20 14:00 67.4 60.7 79 S 3 G 9 1021.5 0.00
20 13:00 65.4 59.4 81 E 4 G 10 1022.4 0.00 65.4 52.3
20 12:00 62.6 58.0 85 SSE 3 G 8 1022.6 0.00